createdAt,value
2018-07-16T00:00:12.836Z,0.00
2018-07-16T00:01:12.826Z,0.00
2018-07-16T00:02:12.797Z,0.00
2018-07-16T00:03:12.788Z,0.00
2018-07-16T00:04:12.778Z,0.00
2018-07-16T00:05:12.767Z,0.00
2018-07-16T00:06:12.756Z,0.00
2018-07-16T00:07:12.762Z,0.00
2018-07-16T00:08:12.735Z,0.00
2018-07-16T00:09:12.722Z,0.00
2018-07-16T00:10:12.713Z,0.00
2018-07-16T00:11:12.700Z,0.00
2018-07-16T00:12:12.692Z,0.00
2018-07-16T00:13:12.692Z,0.00
2018-07-16T00:14:12.668Z,0.00
2018-07-16T00:15:12.657Z,0.00
2018-07-16T00:16:12.646Z,0.00
2018-07-16T00:17:12.637Z,0.00
2018-07-16T00:18:12.642Z,0.00
2018-07-16T00:19:12.613Z,0.00
2018-07-16T00:20:12.610Z,0.00
2018-07-16T00:21:12.595Z,0.00
2018-07-16T00:22:12.583Z,0.00
2018-07-16T00:23:12.574Z,0.00
2018-07-16T00:24:12.578Z,0.00
2018-07-16T00:25:12.552Z,0.00
2018-07-16T00:26:12.540Z,0.00
2018-07-16T00:27:12.530Z,0.00
2018-07-16T00:28:12.531Z,0.00
2018-07-16T00:29:12.506Z,0.00
2018-07-16T00:30:12.498Z,0.00
2018-07-16T00:31:12.496Z,0.00
2018-07-16T00:32:12.473Z,0.00
2018-07-16T00:33:12.463Z,0.00
2018-07-16T00:34:12.467Z,0.00
2018-07-16T00:35:12.440Z,0.00
2018-07-16T00:36:12.450Z,0.00
2018-07-16T00:37:12.418Z,0.00
2018-07-16T00:38:12.410Z,0.00
2018-07-16T00:39:12.399Z,0.00
2018-07-16T00:40:12.387Z,0.00
2018-07-16T00:41:12.379Z,0.00
2018-07-16T00:42:12.381Z,0.00
2018-07-16T00:43:12.354Z,0.00
2018-07-16T00:44:12.345Z,0.00
2018-07-16T00:45:12.333Z,0.00
2018-07-16T00:46:12.322Z,0.00
2018-07-16T00:47:12.329Z,0.00
2018-07-16T00:48:12.307Z,0.00
2018-07-16T00:49:12.291Z,0.00
2018-07-16T00:50:12.282Z,0.00
2018-07-16T00:51:12.271Z,0.00
2018-07-16T00:52:12.274Z,0.00
2018-07-16T00:53:12.249Z,0.00
2018-07-16T00:54:12.237Z,0.00
2018-07-16T00:55:12.240Z,0.00
2018-07-16T00:56:12.216Z,0.00
2018-07-16T00:57:12.222Z,0.00
2018-07-16T00:58:12.210Z,0.00
2018-07-16T00:59:12.183Z,0.00
2018-07-16T01:00:12.172Z,0.00
2018-07-16T01:01:12.177Z,0.00
2018-07-16T01:02:12.152Z,0.00
2018-07-16T01:03:12.143Z,0.00
2018-07-16T01:04:12.166Z,0.00
2018-07-16T01:05:12.123Z,0.00
2018-07-16T01:06:12.107Z,0.00
2018-07-16T01:07:12.098Z,0.00
2018-07-16T01:08:12.085Z,0.00
2018-07-16T01:09:12.075Z,0.00
2018-07-16T01:10:12.080Z,0.00
2018-07-16T01:11:12.053Z,0.00
2018-07-16T01:12:12.042Z,0.00
2018-07-16T01:13:12.034Z,0.00
2018-07-16T01:14:12.021Z,0.00
2018-07-16T01:15:12.052Z,0.00
2018-07-16T01:16:12.000Z,0.00
2018-07-16T01:17:11.987Z,0.00
2018-07-16T01:18:11.978Z,0.00
2018-07-16T01:19:11.968Z,0.00
2018-07-16T01:20:11.959Z,0.00
2018-07-16T01:21:11.964Z,0.00
2018-07-16T01:22:11.934Z,0.00
2018-07-16T01:23:11.926Z,0.00
2018-07-16T01:24:11.918Z,0.00
2018-07-16T01:25:11.916Z,0.00
2018-07-16T01:26:11.905Z,0.00
2018-07-16T01:27:11.893Z,0.00
2018-07-16T01:28:11.869Z,0.00
2018-07-16T01:29:11.861Z,0.00
2018-07-16T01:30:11.847Z,0.00
2018-07-16T01:31:11.837Z,0.00
2018-07-16T01:32:11.851Z,0.00
2018-07-16T01:33:11.817Z,0.00
2018-07-16T01:34:11.807Z,0.00
2018-07-16T01:35:11.796Z,0.00
2018-07-16T01:36:11.785Z,0.00
2018-07-16T01:37:11.774Z,0.00
2018-07-16T01:38:11.785Z,0.00
2018-07-16T01:39:11.753Z,0.00
2018-07-16T01:40:11.740Z,0.00
2018-07-16T01:41:11.729Z,0.00
2018-07-16T01:42:11.720Z,0.00
2018-07-16T01:43:11.709Z,0.00
2018-07-16T01:44:11.708Z,0.00
2018-07-16T01:45:11.685Z,0.00
2018-07-16T01:46:11.677Z,0.00
2018-07-16T01:47:11.664Z,0.00
2018-07-16T01:48:11.653Z,0.00
2018-07-16T01:49:11.657Z,0.00
2018-07-16T01:50:11.633Z,0.00
2018-07-16T01:51:11.622Z,0.00
2018-07-16T01:52:11.609Z,0.00
2018-07-16T01:53:11.599Z,0.00
2018-07-16T01:54:11.603Z,0.00
2018-07-16T01:55:11.580Z,0.00
2018-07-16T01:56:11.567Z,0.00
2018-07-16T01:57:11.556Z,0.00
2018-07-16T01:58:11.546Z,0.00
2018-07-16T01:59:11.555Z,0.00
2018-07-16T02:00:11.525Z,0.00
2018-07-16T02:01:11.513Z,0.00
2018-07-16T02:02:11.505Z,0.00
2018-07-16T02:03:11.494Z,0.00
2018-07-16T02:04:11.480Z,0.00
2018-07-16T02:05:11.494Z,0.00
2018-07-16T02:06:11.461Z,0.00
2018-07-16T02:07:11.451Z,0.00
2018-07-16T02:08:11.437Z,0.00
2018-07-16T02:09:11.427Z,0.00
2018-07-16T02:10:11.416Z,0.00
2018-07-16T02:11:11.421Z,0.00
2018-07-16T02:12:11.397Z,0.00
2018-07-16T02:13:11.385Z,0.00
2018-07-16T02:14:11.385Z,0.00
2018-07-16T02:15:11.362Z,0.00
2018-07-16T02:16:11.355Z,0.00
2018-07-16T02:17:11.341Z,0.00
2018-07-16T02:18:11.330Z,0.00
2018-07-16T02:19:11.338Z,0.00
2018-07-16T02:20:11.309Z,0.00
2018-07-16T02:21:11.298Z,0.00
2018-07-16T02:22:11.286Z,0.00
2018-07-16T02:23:11.280Z,0.00
2018-07-16T02:24:11.269Z,0.00
2018-07-16T02:25:11.274Z,0.00
2018-07-16T02:26:11.246Z,0.00
2018-07-16T02:27:11.236Z,0.00
2018-07-16T02:28:11.224Z,0.00
2018-07-16T02:29:11.212Z,0.00
2018-07-16T02:30:11.201Z,0.00
2018-07-16T02:31:11.204Z,0.00
2018-07-16T02:32:11.181Z,0.00
2018-07-16T02:33:11.191Z,0.00
2018-07-16T02:34:11.178Z,0.00
2018-07-16T02:35:11.148Z,0.00
2018-07-16T02:36:11.139Z,0.00
2018-07-16T02:37:11.130Z,0.00
2018-07-16T02:38:11.118Z,0.00
2018-07-16T02:39:11.116Z,0.00
2018-07-16T02:40:11.096Z,0.00
2018-07-16T02:41:11.087Z,0.00
2018-07-16T02:42:11.075Z,0.00
2018-07-16T02:43:11.064Z,0.00
2018-07-16T02:44:11.072Z,0.00
2018-07-16T02:45:11.040Z,0.00
2018-07-16T02:46:11.031Z,0.00
2018-07-16T02:47:11.018Z,0.00
2018-07-16T02:48:11.008Z,0.00
2018-07-16T02:49:10.997Z,0.00
2018-07-16T02:50:11.002Z,0.00
2018-07-16T02:51:10.977Z,0.00
2018-07-16T02:52:10.970Z,0.00
2018-07-16T02:53:10.956Z,0.00
2018-07-16T02:54:10.944Z,0.00
2018-07-16T02:55:10.956Z,0.00
2018-07-16T02:56:10.922Z,0.00
2018-07-16T02:57:10.913Z,0.00
2018-07-16T02:58:10.901Z,0.00
2018-07-16T02:59:10.892Z,0.00
2018-07-16T03:00:10.879Z,0.00
2018-07-16T03:01:10.892Z,0.00
2018-07-16T03:02:10.859Z,0.00
2018-07-16T03:03:10.850Z,0.00
2018-07-16T03:04:10.837Z,0.00
2018-07-16T03:05:10.827Z,0.00
2018-07-16T03:06:10.820Z,0.00
2018-07-16T03:07:10.821Z,0.00
2018-07-16T03:08:10.793Z,0.00
2018-07-16T03:09:10.789Z,0.00
2018-07-16T03:10:10.770Z,0.00
2018-07-16T03:11:10.764Z,0.00
2018-07-16T03:12:10.765Z,0.00
2018-07-16T03:13:10.743Z,5.62
2018-07-16T03:14:10.730Z,5.62
2018-07-16T03:15:10.724Z,5.62
2018-07-16T03:16:10.709Z,5.62
2018-07-16T03:17:10.710Z,5.62
2018-07-16T03:18:10.815Z,5.62
2018-07-16T03:19:10.679Z,5.62
2018-07-16T03:20:10.669Z,5.62
2018-07-16T03:21:10.665Z,11.25
2018-07-16T03:22:10.641Z,11.25
2018-07-16T03:23:10.633Z,11.25
2018-07-16T03:24:10.623Z,11.25
2018-07-16T03:25:10.611Z,11.25
2018-07-16T03:26:10.637Z,16.88
2018-07-16T03:27:10.592Z,16.88
2018-07-16T03:28:10.581Z,16.88
2018-07-16T03:29:10.569Z,16.88
2018-07-16T03:30:10.560Z,16.88
2018-07-16T03:31:10.545Z,22.50
2018-07-16T03:32:10.559Z,22.50
2018-07-16T03:33:10.524Z,22.50
2018-07-16T03:34:10.516Z,22.50
2018-07-16T03:35:10.505Z,28.12
2018-07-16T03:36:10.491Z,28.12
2018-07-16T03:37:10.483Z,28.12
2018-07-16T03:38:10.484Z,33.75
2018-07-16T03:39:10.474Z,33.75
2018-07-16T03:40:10.452Z,33.75
2018-07-16T03:41:10.438Z,33.75
2018-07-16T03:42:10.431Z,39.38
2018-07-16T03:43:10.418Z,39.38
2018-07-16T03:44:10.428Z,39.38
2018-07-16T03:45:10.394Z,45.00
2018-07-16T03:46:10.385Z,45.00
2018-07-16T03:47:10.375Z,45.00
2018-07-16T03:48:10.419Z,50.62
2018-07-16T03:49:10.353Z,50.62
2018-07-16T03:50:10.365Z,50.62
2018-07-16T03:51:10.336Z,56.25
2018-07-16T03:52:10.320Z,56.25
2018-07-16T03:53:10.311Z,56.25
2018-07-16T03:54:10.300Z,61.88
2018-07-16T03:55:10.289Z,61.88
2018-07-16T03:56:10.317Z,61.88
2018-07-16T03:57:10.269Z,67.50
2018-07-16T03:58:10.257Z,67.50
2018-07-16T03:59:10.244Z,73.12
2018-07-16T04:00:10.236Z,73.12
2018-07-16T04:01:10.223Z,73.12
2018-07-16T04:02:10.238Z,78.75
2018-07-16T04:03:10.206Z,78.75
2018-07-16T04:04:10.194Z,78.75
2018-07-16T04:05:10.179Z,84.38
2018-07-16T04:06:10.172Z,84.38
2018-07-16T04:07:10.158Z,84.38
2018-07-16T04:08:10.170Z,90.00
2018-07-16T04:09:10.137Z,90.00
2018-07-16T04:10:10.126Z,95.62
2018-07-16T04:11:10.118Z,95.62
2018-07-16T04:12:10.107Z,95.62
2018-07-16T04:13:10.097Z,101.25
2018-07-16T04:14:10.101Z,101.25
2018-07-16T04:15:10.075Z,101.25
2018-07-16T04:16:10.064Z,106.88
2018-07-16T04:17:10.051Z,106.88
2018-07-16T04:18:10.042Z,106.88
2018-07-16T04:19:10.050Z,112.50
2018-07-16T04:20:10.034Z,112.50
2018-07-16T04:21:10.011Z,112.50
2018-07-16T04:22:09.997Z,118.12
2018-07-16T04:23:09.985Z,118.12
2018-07-16T04:24:09.978Z,118.12
2018-07-16T04:25:09.980Z,123.75
2018-07-16T04:26:09.957Z,123.75
2018-07-16T04:27:09.959Z,123.75
2018-07-16T04:28:09.933Z,123.75
2018-07-16T04:29:09.936Z,129.38
2018-07-16T04:30:09.910Z,129.38
2018-07-16T04:31:09.905Z,129.38
2018-07-16T04:32:09.891Z,135.00
2018-07-16T04:33:09.880Z,135.00
2018-07-16T04:34:09.876Z,135.00
2018-07-16T04:35:09.855Z,140.62
2018-07-16T04:36:09.845Z,140.62
2018-07-16T04:37:09.848Z,140.62
2018-07-16T04:38:09.825Z,140.62
2018-07-16T04:39:09.835Z,146.25
2018-07-16T04:40:09.816Z,146.25
2018-07-16T04:41:09.795Z,146.25
2018-07-16T04:42:09.781Z,151.88
2018-07-16T04:43:09.770Z,151.88
2018-07-16T04:44:09.783Z,151.88
2018-07-16T04:45:09.748Z,151.88
2018-07-16T04:46:09.740Z,157.50
2018-07-16T04:47:09.728Z,157.50
2018-07-16T04:48:09.718Z,157.50
2018-07-16T04:49:09.707Z,157.50
2018-07-16T04:50:09.711Z,163.12
2018-07-16T04:51:09.685Z,163.12
2018-07-16T04:52:09.671Z,163.12
2018-07-16T04:53:09.675Z,168.75
2018-07-16T04:54:09.655Z,168.75
2018-07-16T04:55:09.643Z,168.75
2018-07-16T04:56:09.640Z,168.75
2018-07-16T04:57:09.637Z,174.38
2018-07-16T04:58:09.607Z,174.38
2018-07-16T04:59:09.598Z,174.38
2018-07-16T05:00:09.589Z,174.38
2018-07-16T05:01:09.577Z,174.38
2018-07-16T05:02:09.566Z,180.00
2018-07-16T05:03:09.577Z,180.00
2018-07-16T05:04:09.548Z,180.00
2018-07-16T05:05:09.545Z,180.00
2018-07-16T05:06:09.524Z,185.62
2018-07-16T05:07:09.512Z,185.62
2018-07-16T05:08:09.498Z,185.62
2018-07-16T05:09:09.490Z,185.62
2018-07-16T05:10:09.493Z,191.25
2018-07-16T05:11:09.467Z,191.25
2018-07-16T05:12:09.460Z,191.25
2018-07-16T05:13:09.447Z,191.25
2018-07-16T05:14:09.461Z,196.88
2018-07-16T05:15:09.425Z,196.88
2018-07-16T05:16:09.413Z,196.88
2018-07-16T05:17:09.402Z,196.88
2018-07-16T05:18:09.461Z,196.88
2018-07-16T05:19:09.380Z,202.50
2018-07-16T05:20:09.386Z,202.50
2018-07-16T05:21:09.373Z,202.50
2018-07-16T05:22:09.364Z,202.50
2018-07-16T05:23:09.339Z,208.12
2018-07-16T05:24:09.358Z,208.12
2018-07-16T05:25:09.319Z,208.12
2018-07-16T05:26:09.307Z,208.12
2018-07-16T05:27:09.307Z,208.12
2018-07-16T05:28:09.284Z,213.75
2018-07-16T05:29:09.274Z,213.75
2018-07-16T05:30:09.282Z,213.75
2018-07-16T05:31:09.252Z,213.75
2018-07-16T05:32:09.367Z,219.38
2018-07-16T05:33:09.228Z,219.38
2018-07-16T05:34:09.217Z,219.38
2018-07-16T05:35:09.208Z,225.00
2018-07-16T05:36:09.212Z,225.00
2018-07-16T05:37:09.188Z,225.00
2018-07-16T05:38:09.219Z,225.00
2018-07-16T05:39:09.163Z,230.62
2018-07-16T05:40:09.156Z,230.62
2018-07-16T05:41:09.156Z,236.25
2018-07-16T05:42:09.131Z,236.25
2018-07-16T05:43:09.119Z,236.25
2018-07-16T05:44:09.112Z,241.88
2018-07-16T05:45:09.098Z,247.50
2018-07-16T05:46:09.102Z,241.88
2018-07-16T05:47:09.077Z,241.88
2018-07-16T05:48:09.066Z,247.50
2018-07-16T05:49:09.055Z,247.50
2018-07-16T05:50:09.056Z,247.50
2018-07-16T05:51:09.083Z,247.50
2018-07-16T05:52:09.033Z,241.88
2018-07-16T05:53:09.016Z,241.88
2018-07-16T05:54:09.004Z,241.88
2018-07-16T05:55:09.000Z,241.88
2018-07-16T05:56:08.982Z,247.50
2018-07-16T05:57:08.982Z,247.50
2018-07-16T05:58:09.022Z,247.50
2018-07-16T05:59:08.954Z,253.12
2018-07-16T06:00:08.939Z,253.12
2018-07-16T06:01:08.925Z,253.12
2018-07-16T06:02:08.931Z,253.12
2018-07-16T06:03:08.906Z,258.75
2018-07-16T06:04:08.893Z,258.75
2018-07-16T06:05:08.881Z,258.75
2018-07-16T06:06:08.870Z,264.38
2018-07-16T06:07:08.876Z,264.38
2018-07-16T06:08:08.851Z,264.38
2018-07-16T06:09:08.857Z,264.38
2018-07-16T06:10:08.825Z,270.00
2018-07-16T06:11:08.819Z,270.00
2018-07-16T06:12:08.810Z,281.25
2018-07-16T06:13:08.801Z,298.12
2018-07-16T06:14:08.784Z,315.00
2018-07-16T06:15:08.782Z,337.50
2018-07-16T06:16:08.764Z,466.88
2018-07-16T06:17:08.769Z,916.88
2018-07-16T06:18:08.743Z,1203.75
2018-07-16T06:19:08.743Z,1260.00
2018-07-16T06:20:08.721Z,1288.12
2018-07-16T06:21:08.707Z,1260.00
2018-07-16T06:22:08.715Z,1231.88
2018-07-16T06:23:08.701Z,1276.88
2018-07-16T06:24:08.829Z,1321.88
2018-07-16T06:25:08.664Z,1321.88
2018-07-16T06:26:08.654Z,1316.25
2018-07-16T06:27:08.643Z,1350.00
2018-07-16T06:28:08.660Z,1406.25
2018-07-16T06:29:08.625Z,1428.75
2018-07-16T06:30:08.614Z,1456.88
2018-07-16T06:31:08.601Z,1473.75
2018-07-16T06:32:08.591Z,1468.12
2018-07-16T06:33:08.585Z,1456.88
2018-07-16T06:34:08.582Z,1501.88
2018-07-16T06:35:08.564Z,1552.50
2018-07-16T06:36:08.546Z,1569.38
2018-07-16T06:37:08.538Z,1608.75
2018-07-16T06:38:08.525Z,1642.50
2018-07-16T06:39:08.526Z,1625.62
2018-07-16T06:40:08.543Z,1575.00
2018-07-16T06:41:08.745Z,1552.50
2018-07-16T06:42:08.482Z,1653.75
2018-07-16T06:43:08.487Z,1698.75
2018-07-16T06:44:08.467Z,1698.75
2018-07-16T06:45:08.466Z,1698.75
2018-07-16T06:46:08.484Z,1687.50
2018-07-16T06:47:08.432Z,1636.88
2018-07-16T06:48:08.419Z,1676.25
2018-07-16T06:49:08.408Z,1687.50
2018-07-16T06:50:08.401Z,1653.75
2018-07-16T06:51:08.389Z,1620.00
2018-07-16T06:52:08.390Z,1575.00
2018-07-16T06:53:08.364Z,1591.88
2018-07-16T06:54:08.358Z,1636.88
2018-07-16T06:55:08.425Z,1642.50
2018-07-16T06:56:08.338Z,1631.25
2018-07-16T06:57:08.339Z,1631.25
2018-07-16T06:58:08.314Z,1653.75
2018-07-16T06:59:08.332Z,1648.12
2018-07-16T07:00:08.295Z,1648.12
2018-07-16T07:01:08.280Z,1670.62
2018-07-16T07:02:08.289Z,1676.25
2018-07-16T07:03:08.262Z,1665.00
2018-07-16T07:04:08.249Z,1704.38
2018-07-16T07:05:08.248Z,1642.50
2018-07-16T07:06:08.228Z,1631.25
2018-07-16T07:07:08.219Z,1687.50
2018-07-16T07:08:08.206Z,1693.12
2018-07-16T07:09:08.211Z,1670.62
2018-07-16T07:10:08.328Z,1687.50
2018-07-16T07:11:08.176Z,1755.00
2018-07-16T07:12:08.165Z,1743.75
2018-07-16T07:13:08.153Z,1715.62
2018-07-16T07:14:08.162Z,1698.75
2018-07-16T07:15:08.132Z,1681.88
2018-07-16T07:16:08.124Z,1732.50
2018-07-16T07:17:08.113Z,1811.25
2018-07-16T07:18:08.149Z,1890.00
2018-07-16T07:19:08.091Z,1935.00
2018-07-16T07:20:08.096Z,1940.62
2018-07-16T07:21:08.071Z,1985.62
2018-07-16T07:22:08.059Z,1963.12
2018-07-16T07:23:08.048Z,1901.25
2018-07-16T07:24:08.053Z,2036.25
2018-07-16T07:25:08.031Z,2103.75
2018-07-16T07:26:08.033Z,2086.88
2018-07-16T07:27:08.009Z,2131.88
2018-07-16T07:28:07.995Z,2165.62
2018-07-16T07:29:07.987Z,2137.50
2018-07-16T07:30:07.975Z,2137.50
2018-07-16T07:31:07.978Z,2188.12
2018-07-16T07:32:07.956Z,2205.00
2018-07-16T07:33:07.946Z,2227.50
2018-07-16T07:34:07.931Z,2233.12
2018-07-16T07:35:07.990Z,2295.00
2018-07-16T07:36:08.014Z,2396.25
2018-07-16T07:37:07.903Z,2356.88
2018-07-16T07:38:07.892Z,2255.62
2018-07-16T07:39:07.879Z,2250.00
2018-07-16T07:40:07.871Z,2340.00
2018-07-16T07:41:07.876Z,2379.38
2018-07-16T07:42:07.867Z,2300.62
2018-07-16T07:43:07.837Z,2244.38
2018-07-16T07:44:07.834Z,2311.88
2018-07-16T07:45:07.820Z,2362.50
2018-07-16T07:46:07.805Z,2311.88
2018-07-16T07:47:07.856Z,2340.00
2018-07-16T07:48:07.801Z,2311.88
2018-07-16T07:49:07.775Z,2362.50
2018-07-16T07:50:07.765Z,2368.12
2018-07-16T07:51:07.759Z,2272.50
2018-07-16T07:52:07.746Z,2283.75
2018-07-16T07:53:07.747Z,2362.50
2018-07-16T07:54:07.887Z,2401.88
2018-07-16T07:55:08.222Z,2497.50
2018-07-16T07:56:07.703Z,2581.88
2018-07-16T07:57:07.696Z,2452.50
2018-07-16T07:58:07.683Z,2362.50
2018-07-16T07:59:07.672Z,2390.62
2018-07-16T08:00:07.677Z,2469.38
2018-07-16T08:01:07.654Z,2497.50
2018-07-16T08:02:07.642Z,2452.50
2018-07-16T08:03:07.630Z,2508.75
2018-07-16T08:04:07.623Z,2553.75
2018-07-16T08:05:07.626Z,2497.50
2018-07-16T08:06:07.600Z,2491.88
2018-07-16T08:07:07.589Z,2548.12
2018-07-16T08:08:07.582Z,2469.38
2018-07-16T08:09:07.583Z,2576.25
2018-07-16T08:10:07.558Z,2565.00
2018-07-16T08:11:07.550Z,2610.00
2018-07-16T08:12:07.554Z,2576.25
2018-07-16T08:13:07.530Z,2671.88
2018-07-16T08:14:07.522Z,2565.00
2018-07-16T08:15:07.510Z,2655.00
2018-07-16T08:16:07.503Z,2790.00
2018-07-16T08:17:07.503Z,2700.00
2018-07-16T08:18:07.476Z,2705.62
2018-07-16T08:19:07.468Z,2722.50
2018-07-16T08:20:07.461Z,2722.50
2018-07-16T08:21:07.544Z,2784.38
2018-07-16T08:22:07.433Z,2885.62
2018-07-16T08:23:07.427Z,3003.75
2018-07-16T08:24:07.418Z,3082.50
2018-07-16T08:25:07.403Z,3065.62
2018-07-16T08:26:07.392Z,2947.50
2018-07-16T08:27:07.398Z,2964.38
2018-07-16T08:28:07.436Z,2998.12
2018-07-16T08:29:07.383Z,2823.75
2018-07-16T08:30:07.356Z,2863.12
2018-07-16T08:31:07.342Z,3015.00
2018-07-16T08:32:07.332Z,2913.75
2018-07-16T08:33:07.325Z,2975.62
2018-07-16T08:34:07.313Z,3150.00
2018-07-16T08:35:07.319Z,3048.75
2018-07-16T08:36:07.291Z,2896.88
2018-07-16T08:37:07.286Z,3060.00
2018-07-16T08:38:07.285Z,3144.38
2018-07-16T08:39:07.328Z,2986.88
2018-07-16T08:40:07.251Z,2992.50
2018-07-16T08:41:07.245Z,3296.25
2018-07-16T08:42:07.248Z,3301.88
2018-07-16T08:43:07.227Z,3043.12
2018-07-16T08:44:07.214Z,3262.50
2018-07-16T08:45:07.202Z,3560.62
2018-07-16T08:46:07.236Z,3307.50
2018-07-16T08:47:07.196Z,3279.38
2018-07-16T08:48:07.196Z,3532.50
2018-07-16T08:49:07.163Z,3082.50
2018-07-16T08:50:07.153Z,2041.88
2018-07-16T08:51:07.144Z,1743.75
2018-07-16T08:52:07.130Z,2086.88
2018-07-16T08:53:07.121Z,3375.00
2018-07-16T08:54:07.128Z,3915.00
2018-07-16T08:55:07.114Z,3729.38
2018-07-16T08:56:07.093Z,3369.38
2018-07-16T08:57:07.080Z,3223.12
2018-07-16T08:58:07.069Z,3273.75
2018-07-16T08:59:07.083Z,3431.25
2018-07-16T09:00:07.048Z,3526.88
2018-07-16T09:01:07.056Z,3380.62
2018-07-16T09:02:07.028Z,3290.62
2018-07-16T09:03:07.034Z,3285.00
2018-07-16T09:04:07.044Z,3515.62
2018-07-16T09:05:07.001Z,3656.25
2018-07-16T09:06:06.992Z,3673.12
2018-07-16T09:07:07.044Z,3628.12
2018-07-16T09:08:06.976Z,3543.75
2018-07-16T09:09:06.960Z,3661.88
2018-07-16T09:10:06.957Z,2621.25
2018-07-16T09:11:06.962Z,1935.00
2018-07-16T09:12:06.946Z,3189.38
2018-07-16T09:13:07.000Z,3825.00
2018-07-16T09:14:06.929Z,3633.75
2018-07-16T09:15:06.900Z,3335.62
2018-07-16T09:16:06.890Z,3116.25
2018-07-16T09:17:06.880Z,3093.75
2018-07-16T09:18:06.870Z,3234.38
2018-07-16T09:19:06.905Z,3363.75
2018-07-16T09:20:06.853Z,3448.12
2018-07-16T09:21:06.844Z,3380.62
2018-07-16T09:22:06.836Z,3420.00
2018-07-16T09:23:06.824Z,3560.62
2018-07-16T09:24:06.825Z,3605.62
2018-07-16T09:25:06.812Z,3470.62
2018-07-16T09:26:06.792Z,3465.00
2018-07-16T09:27:06.787Z,3380.62
2018-07-16T09:28:06.773Z,3324.38
2018-07-16T09:29:06.777Z,3358.12
2018-07-16T09:30:06.774Z,3352.50
2018-07-16T09:31:06.744Z,3436.88
2018-07-16T09:32:06.735Z,3431.25
2018-07-16T09:33:06.723Z,3481.88
2018-07-16T09:34:06.712Z,3600.00
2018-07-16T09:35:06.704Z,3645.00
2018-07-16T09:36:06.713Z,3661.88
2018-07-16T09:37:06.686Z,3819.38
2018-07-16T09:38:06.675Z,3881.25
2018-07-16T09:39:06.758Z,3841.88
2018-07-16T09:40:06.653Z,3740.62
2018-07-16T09:41:06.647Z,3825.00
2018-07-16T09:42:06.661Z,3875.62
2018-07-16T09:43:06.626Z,3836.25
2018-07-16T09:44:06.619Z,3785.62
2018-07-16T09:45:06.606Z,3796.88
2018-07-16T09:46:06.599Z,3718.12
2018-07-16T09:47:06.586Z,3718.12
2018-07-16T09:48:06.608Z,3813.75
2018-07-16T09:49:06.567Z,3774.38
2018-07-16T09:50:06.560Z,3791.25
2018-07-16T09:51:06.551Z,3898.12
2018-07-16T09:52:06.538Z,3875.62
2018-07-16T09:53:06.529Z,3420.00
2018-07-16T09:54:06.563Z,2958.75
2018-07-16T09:55:06.511Z,3290.62
2018-07-16T09:56:06.511Z,3864.38
2018-07-16T09:57:06.505Z,4128.75
2018-07-16T09:58:06.486Z,4151.25
2018-07-16T09:59:06.482Z,4095.00
2018-07-16T10:00:06.484Z,3909.38
2018-07-16T10:01:06.457Z,3830.62
2018-07-16T10:02:06.449Z,3819.38
2018-07-16T10:03:06.439Z,3898.12
2018-07-16T10:04:06.441Z,3909.38
2018-07-16T10:05:06.442Z,3785.62
2018-07-16T10:06:06.411Z,3746.25
2018-07-16T10:07:06.404Z,3937.50
2018-07-16T10:08:06.394Z,3943.12
2018-07-16T10:09:06.384Z,3926.25
2018-07-16T10:10:06.373Z,4027.50
2018-07-16T10:11:06.377Z,3988.12
2018-07-16T10:12:06.357Z,3931.88
2018-07-16T10:13:06.351Z,3875.62
2018-07-16T10:14:06.337Z,3538.12
2018-07-16T10:15:06.328Z,3487.50
2018-07-16T10:16:06.359Z,3931.88
2018-07-16T10:17:06.312Z,4190.62
2018-07-16T10:18:06.300Z,4151.25
2018-07-16T10:19:06.287Z,4095.00
2018-07-16T10:20:06.337Z,3920.62
2018-07-16T10:21:06.267Z,3926.25
2018-07-16T10:22:06.270Z,4173.75
2018-07-16T10:23:06.250Z,4269.38
2018-07-16T10:24:06.239Z,4241.25
2018-07-16T10:25:06.230Z,4185.00
2018-07-16T10:26:06.223Z,4145.62
2018-07-16T10:27:06.231Z,4111.88
2018-07-16T10:28:06.200Z,3999.38
2018-07-16T10:29:06.196Z,3864.38
2018-07-16T10:30:06.181Z,3915.00
2018-07-16T10:31:06.168Z,4061.25
2018-07-16T10:32:06.161Z,4207.50
2018-07-16T10:33:06.164Z,4134.38
2018-07-16T10:34:06.142Z,4033.12
2018-07-16T10:35:06.132Z,4168.12
2018-07-16T10:36:06.120Z,4145.62
2018-07-16T10:37:06.112Z,4050.00
2018-07-16T10:38:06.113Z,4196.25
2018-07-16T10:39:06.100Z,4095.00
2018-07-16T10:40:06.080Z,3931.88
2018-07-16T10:41:06.074Z,3931.88
2018-07-16T10:42:06.061Z,4117.50
2018-07-16T10:43:06.054Z,4336.88
2018-07-16T10:44:06.060Z,4342.50
2018-07-16T10:45:06.041Z,4173.75
2018-07-16T10:46:06.027Z,4089.38
2018-07-16T10:47:06.015Z,4072.50
2018-07-16T10:48:06.010Z,4190.62
2018-07-16T10:49:06.018Z,4348.12
2018-07-16T10:50:05.991Z,4179.38
2018-07-16T10:51:05.981Z,3915.00
2018-07-16T10:52:05.975Z,3858.75
2018-07-16T10:53:05.963Z,4005.00
2018-07-16T10:54:05.955Z,4134.38
2018-07-16T10:55:06.003Z,4156.88
2018-07-16T10:56:05.933Z,4033.12
2018-07-16T10:57:05.927Z,4072.50
2018-07-16T10:58:05.918Z,4196.25
2018-07-16T10:59:05.905Z,4156.88
2018-07-16T11:00:05.901Z,4140.00
2018-07-16T11:01:05.906Z,4134.38
2018-07-16T11:02:05.879Z,4083.75
2018-07-16T11:03:05.917Z,4207.50
2018-07-16T11:04:05.862Z,4297.50
2018-07-16T11:05:05.853Z,4381.88
2018-07-16T11:06:05.845Z,4055.62
2018-07-16T11:07:05.833Z,3988.12
2018-07-16T11:08:05.826Z,4190.62
2018-07-16T11:09:05.846Z,4218.75
2018-07-16T11:10:05.811Z,4111.88
2018-07-16T11:11:05.799Z,4044.38
2018-07-16T11:12:05.786Z,4151.25
2018-07-16T11:13:05.779Z,4320.00
2018-07-16T11:14:05.772Z,4258.12
2018-07-16T11:15:05.916Z,3993.75
2018-07-16T11:16:05.749Z,4123.12
2018-07-16T11:17:05.744Z,4370.62
2018-07-16T11:18:05.733Z,4196.25
2018-07-16T11:19:05.737Z,4258.12
2018-07-16T11:20:05.716Z,4376.25
2018-07-16T11:21:05.708Z,4190.62
2018-07-16T11:22:05.699Z,4258.12
2018-07-16T11:23:05.701Z,4235.62
2018-07-16T11:24:05.698Z,3853.12
2018-07-16T11:25:05.667Z,3363.75
2018-07-16T11:26:05.660Z,3583.12
2018-07-16T11:27:05.658Z,4162.50
2018-07-16T11:28:05.646Z,3920.62
2018-07-16T11:29:05.635Z,3875.62
2018-07-16T11:30:05.633Z,4185.00
2018-07-16T11:31:05.616Z,4241.25
2018-07-16T11:32:05.608Z,4213.12
2018-07-16T11:33:05.596Z,4213.12
2018-07-16T11:34:05.591Z,4128.75
2018-07-16T11:35:05.596Z,4258.12
2018-07-16T11:36:05.585Z,4235.62
2018-07-16T11:37:05.562Z,4280.62
2018-07-16T11:38:05.550Z,4258.12
2018-07-16T11:39:05.542Z,4235.62
2018-07-16T11:40:05.534Z,2739.38
2018-07-16T11:41:05.567Z,1125.00
2018-07-16T11:42:05.512Z,1001.25
2018-07-16T11:43:05.505Z,1051.88
2018-07-16T11:44:05.499Z,1659.38
2018-07-16T11:45:05.490Z,3076.88
2018-07-16T11:46:05.508Z,4246.88
2018-07-16T11:47:05.487Z,4190.62
2018-07-16T11:48:05.461Z,4083.75
2018-07-16T11:49:05.452Z,4145.62
2018-07-16T11:50:05.440Z,4151.25
2018-07-16T11:51:05.433Z,4168.12
2018-07-16T11:52:05.479Z,4381.88
2018-07-16T11:53:05.426Z,4370.62
2018-07-16T11:54:05.400Z,4156.88
2018-07-16T11:55:05.391Z,4168.12
2018-07-16T11:56:05.433Z,4291.88
2018-07-16T11:57:05.373Z,4370.62
2018-07-16T11:58:05.376Z,4252.50
2018-07-16T11:59:05.514Z,4230.00
2018-07-16T12:00:05.343Z,4252.50
2018-07-16T12:01:05.337Z,4246.88
2018-07-16T12:02:05.338Z,4252.50
2018-07-16T12:03:05.318Z,4106.25
2018-07-16T12:04:05.319Z,2396.25
2018-07-16T12:05:05.332Z,810.00
2018-07-16T12:06:05.287Z,855.00
2018-07-16T12:07:05.280Z,3234.38
2018-07-16T12:08:05.272Z,945.00
2018-07-16T12:09:05.261Z,2525.62
2018-07-16T12:10:05.275Z,3639.38
2018-07-16T12:11:05.243Z,4145.62
2018-07-16T12:12:05.230Z,3858.75
2018-07-16T12:13:05.223Z,3920.62
2018-07-16T12:14:05.213Z,4134.38
2018-07-16T12:15:05.200Z,4106.25
2018-07-16T12:16:05.204Z,3931.88
2018-07-16T12:17:05.183Z,4038.75
2018-07-16T12:18:05.174Z,4128.75
2018-07-16T12:19:05.163Z,4111.88
2018-07-16T12:20:05.154Z,3858.75
2018-07-16T12:21:05.161Z,3836.25
2018-07-16T12:22:05.133Z,4005.00
2018-07-16T12:23:05.128Z,4072.50
2018-07-16T12:24:05.119Z,4089.38
2018-07-16T12:25:05.126Z,4230.00
2018-07-16T12:26:05.099Z,4303.12
2018-07-16T12:27:05.092Z,4303.12
2018-07-16T12:28:05.080Z,4179.38
2018-07-16T12:29:05.072Z,4173.75
2018-07-16T12:30:05.063Z,4230.00
2018-07-16T12:31:05.069Z,4235.62